Sign-in with your pilot id or email, or register

Flight ORB121

  • Submitted By: Thomas Schedl
  • Departure Airport: Reggio Calabria (LICR)
  • Arrival Airport: Bologna (LIPE)
  • Aircraft: B737-800 (EI-RAB)
  • Flight Time: 1.18
  • Date Submitted: 17/10/2018
  • Route: PIGE6A PIGER Q58 SOBRI AGNIS VARAL Q58 SOR TEA
  • Status: Accepted
Flight Details
Gross Revenue:
(137 load / € 295.00 per unit
€ 40, 415.00
Fuel Cost:
(7885 fuel used @ 0.9261 / unit)
€ 7, 302.30

Additional Log Information:

View Log

[2018/10/17 12:03:00]
Flight IATA:ORB121
Pilot Number:ORB0001
Company ICAO:ORB
Aircraft Type:B738
PAX:137
Aircraft Registration:EI-RAB
Departing Airport: LICR
Destination Airport: LIPE
Alternate Airport:EDDM
Online: No
Route:PIGE6A PIGER Q58 SOBRI DCT AGNIS DCT VARAL Q58 SOR DCT TEA
DCT ALAXI DCT GIKIN DCT AMTEL DCT IBRID
Flight Level:30000
12:03 Zero fuel Weight: 121802 Lbs, Fuel Weight: 17537 Lbs
12:03 VATSIM:LICR 171050Z 19014KT CAVOK 25/19 Q1015
12:03 VATSIM:LIPE 171150Z 26004KT 230V290 4500 BR SCT015 BKN030 18/14 Q1019
12:06 Parking Brakes off
12:06 Com1 Freq=128.30
12:06 VR= 156 Knots
12:06 V2= 160 Knots
12:06 Take-off
12:06 Take off Weight: 139081 Lbs
12:06 Wind: 189? @ 014 Knots Heading: 154?
12:06 POS N38? 04? 19?? E015? 39? 02??
12:06 N11 109 N12 109
12:07 Flaps:5 at 162 Knots
12:07 Gear Up: 164 Knots
12:07 Flaps:4 at 216 Knots
12:07 Flaps:3 at 227

Route Map